Historyczne dane pomiarowe

Dodano dane terminowe – wersja testowa.

Dane z okresu 1951-2019

Wersja bazy: 1.34 [2019-03-16, lista zmian], aktualizacja planowana na 2019-04-15

Dane meteo z obszaru Polski uzyskane na podstawie danych udostępnionych przez Instytut Meteorologii i Gospodarki Wodnej – Państwowy Instytut Badawczy.

 

Wybierz Datę:    

       

TemperaturaWilgotnośćWiatrCiśnienieOpadyŚniegCzas trwania zjawisk
 Stacja t tx tn tng RH VA  wxwx mslp ppp RRR   cm mm wxwxwxwxwxwxwx
1987-08-14 14.6 19.7 5.7 4.5-- 5.7 1.0---- 5.5------------
1987-08-13 12.0 15.3 8.9 8.0-- 7.0 3.0---- 0.0------------
1987-08-12 10.5 14.4 7.7 7.0-- 7.0 6.3---- 1.5------------
1987-08-11 12.1 16.0 7.9 7.8-- 5.0 3.7---- 2.2------------
1987-08-10 13.2 18.0 11.7 8.5-- 7.7 3.0---- 0.5------------
1987-08-09 16.0 21.8 7.4 3.5-- 4.7 2.0---- 7.2------------
1987-08-08 14.4 19.8 8.9 5.0-- 2.7 1.3---- 0.2------------
1987-08-07 12.6 17.0 8.9 8.5-- 4.3 3.7---- 0.0------------
1987-08-06 12.5 16.6 4.9 1.6-- 4.7 1.7---- 1.4------------
1987-08-05 12.6 17.6 5.1 2.0-- 2.0 3.0---- 0.0------------
1987-08-04 12.6 18.8 6.4 2.2-- 2.7 1.7---- 0.7------------
1987-08-03 12.7 17.0 9.0 5.2-- 4.7 2.0---- 0.0------------
1987-08-02 15.0 17.4 13.4 12.0-- 2.0 0.7---- 3.8------------
1987-08-01 16.1 19.8 10.4 6.6-- 3.7 3.0---- 3.8------------
1987-07-31 14.7 19.8 12.2 10.2-- 5.7 1.7---- 3.5------------
1987-07-30 16.0 21.1 10.1 5.5-- 4.3 0.7---- 0.0------------
1987-07-29 13.6 17.0 10.0 7.0-- 6.7 1.0---- 2.0------------
1987-07-28 14.4 18.4 11.0 9.5-- 5.7 3.7---- 1.5------------
1987-07-27 12.1 15.6 8.1 6.0-- 5.7 3.0---- 5.0------------
1987-07-26 12.5 17.0 9.9 9.0-- 6.7 1.0---- 4.0------------
1987-07-25 15.8 22.0 10.9 10.0-- 6.0 1.0---- 0.6------------
1987-07-24 20.1 23.0 13.3 10.0-- 6.7 1.7---- 0.0------------
1987-07-23 21.1 27.2 16.0 13.9-- 5.7 1.3---- 1.0------------
1987-07-22 20.1 26.2 13.0 10.5-- 3.3 1.0---- 5.6------------
1987-07-21 18.6 22.1 15.8 11.0-- 4.7 1.7---- 0.0------------
1987-07-20 19.4 26.1 16.5 14.5-- 7.0 3.0---- 0.0------------
1987-07-19 18.1 23.0 10.7 9.5-- 2.7 2.3---- 0.0------------
1987-07-18 20.0 24.8 15.2 10.0-- 2.0 0.7---- 0.0------------
1987-07-17 19.9 26.0 12.4 10.0-- 2.0 0.7---- 0.0------------
1987-07-16 16.7 22.9 8.1 5.5-- 3.7 0.7---- 0.0------------
1987-07-15 14.4 21.0 5.9 3.5-- 1.3 1.3---- 0.0------------
1987-07-14 13.4 18.0 9.5 7.0-- 2.3 2.0---- 0.0------------
1987-07-13 14.7 15.8 12.7 11.2-- 3.0 0.7---- 3.5------------
1987-07-12 15.5 18.0 9.1 9.0-- 6.7 1.0---- 7.5------------
1987-07-11 12.7 15.2 9.1 6.5-- 4.3 0.7---- 4.0------------
1987-07-10 14.0 17.1 11.1 9.0-- 5.0 4.3---- 2.0------------
1987-07-09 18.0 24.4 14.5 12.5-- 8.0 2.3---- 4.0------------
1987-07-08 22.8 30.0 14.1 6.5-- 2.0 3.0---- 0.0------------
1987-07-07 19.5 27.0 8.7 4.0-- 1.3 2.3---- 0.0------------
1987-07-06 15.5 20.0 5.1 5.2-- 2.0 0.7---- 0.0------------
1987-07-05 13.3 20.8 7.9 5.0-- 3.3 2.3---- 0.0------------
1987-07-04 14.9 21.0 7.8 3.5-- 2.3 1.3---- 0.0------------
1987-07-03 16.1 21.2 9.4 5.5-- 1.3 1.7---- 0.0------------
1987-07-02 19.8 27.0 15.5 14.5-- 3.7 3.0---- 0.0------------
1987-07-01 25.3 32.0 19.0 14.5-- 2.0 1.7---- 0.0------------
1987-06-30 22.6 26.0 18.5 16.4-- 4.7 1.3---- 0.0------------
1987-06-29 16.1 22.0 3.9 3.8-- 4.0 1.0---- 0.0------------
1987-06-28 16.3 20.0 10.4 7.5-- 6.7 3.0---- 3.5------------
1987-06-27 18.3 20.0 14.9 12.5-- 6.7 2.3---- 10.8------------
1987-06-26 15.7 21.0 8.1 7.0-- 5.0 2.3---- 0.0------------
1987-06-25 11.2 15.7 8.4 8.0-- 6.7 2.3---- 12.0------------
1987-06-24 16.2 19.2 13.1 11.7-- 4.0 3.0---- 4.2------------
1987-06-23 17.2 25.0 9.4 5.0-- 2.7 1.3---- 1.8------------
1987-06-22 17.0 22.8 9.2 5.7-- 1.3 2.3---- 0.0------------
1987-06-21 16.5 22.5 6.9 5.5-- 2.0 1.3---- 0.0------------
1987-06-20 13.8 20.5 2.9 1.2-- 1.3 2.3---- 0.0------------
1987-06-19 10.5 15.0 3.9 3.8-- 4.7 1.7---- 0.0------------
1987-06-18 9.9 17.0 1.1 1.0-- 3.3 1.7---- 0.0------------
1987-06-17 10.4 14.0 7.8 7.5-- 2.7 3.0---- 0.0------------
1987-06-16 15.0 23.7 9.6 9.5-- 6.7 5.0---- 2.5------------
2436.6 ms

 

Źródłem pochodzenia danych jest Instytut Meteorologii i Gospodarki Wodnej – Państwowy Instytut Badawczy. Dane Instytutu Meteorologii i Gospodarki Wodnej – Państwowego Instytutu Badawczego zostały przetworzone.

Dane źródłowe można odnaleźć na stronie https://dane.imgw.pl